This is the latest recevied weather packets stored in our database for station/object W0VI. If no packets are shown the sender has not sent any weather packets the latest 10 day(s).
| Time | Temp. | Humidity | Pressure | Rain* | Wind** | Luminosity | Snow |
|---|---|---|---|---|---|---|---|
| 1787380003 | 16.67° C | 97% | 1016.5 hPa | 0 mm | - | 0 W/m² | - |
| 1787379699 | 16.67° C | 97% | 1016.5 hPa | 0 mm | - | 0 W/m² | - |
| 1787379394 | 16.67° C | 96% | 1016.7 hPa | 0 mm | - | 0 W/m² | - |
| 1787379094 | 16.67° C | 96% | 1016.7 hPa | 0 mm | - | 0 W/m² | - |
| 1787378792 | 17.22° C | 96% | 1016.6 hPa | 0 mm | - | 0 W/m² | - |
| 1787378489 | 17.22° C | 96% | 1016.7 hPa | 0 mm | - | 0 W/m² | - |
| 1787378188 | 17.22° C | 95% | 1017 hPa | 0 mm | - | 0 W/m² | - |
| 1787377884 | 17.22° C | 95% | 1016.8 hPa | 0 mm | - | 0 W/m² | - |
| 1787377582 | 17.22° C | 94% | 1016.9 hPa | 0 mm | - | 0 W/m² | - |
| 1787377281 | 17.22° C | 94% | 1016.9 hPa | 0 mm | - | 0 W/m² | - |
| 1787376977 | 17.22° C | 93% | 1017 hPa | 0 mm | - | 0 W/m² | - |
| 1787376674 | 17.78° C | 93% | 1016.9 hPa | 0 mm | - | 0 W/m² | - |
| 1787376369 | 17.78° C | 92% | 1016.9 hPa | 0 mm | - | 0 W/m² | - |
| 1787376065 | 17.78° C | 91% | 1017 hPa | 0 mm | - | 0 W/m² | - |
| 1787375761 | 18.33° C | 90% | 1017.1 hPa | 0 mm | - | 0 W/m² | - |
| 1787375456 | 18.89° C | 88% | 1017.1 hPa | 3.05 mm | - | 0 W/m² | - |
| 1787375150 | 20° C | 84% | 1017.5 hPa | 3.05 mm | - | 0 W/m² | - |
| 1787374847 | 20.56° C | 78% | 1017.6 hPa | 0 mm | - | 0 W/m² | - |
| 1787374543 | 20.56° C | 77% | 1017.5 hPa | 0 mm | - | 0 W/m² | - |
| 1787374239 | 20° C | 80% | 1017.7 hPa | 0 mm | - | 0 W/m² | - |
| 1787373935 | 20° C | 80% | 1017.3 hPa | 0 mm | - | 0 W/m² | - |
| 1787373633 | 20.56° C | 79% | 1017.1 hPa | 0 mm | - | 0 W/m² | - |
| 1787373328 | 20.56° C | 78% | 1016.8 hPa | 0 mm | - | 0 W/m² | - |
| 1787373024 | 20.56° C | 78% | 1016.8 hPa | 0 mm | - | 0 W/m² | - |
| 1787372718 | 20.56° C | 78% | 1016.8 hPa | 0 mm | - | 0 W/m² | - |
* Rain latest hour (hover to see other rain measurements)
** Current wind speed in m/s (hover to see current wind gust speed)